Time;durP1;ratioP1;P1;durP2;ratioP2;P2;SDS_P1;SDS_P2;PMS_P1;PMS_P2;Temp;Humidity;BMP_temperature;BMP_pressure;BME280_temperature;BME280_humidity;BME280_pressure;Samples;Min_cycle;Max_cycle;Signal;HPM_P1;HPM_P2
2023/01/30 00:02:02;;;;;;;38.85;34.33;;;;;;;;;;4224753;28;20054;-80
2023/01/30 00:04:22;;;;;;;44.00;34.42;;;;;;;;;;4221704;28;20051;-80
2023/01/30 00:06:42;;;;;;;74.00;41.28;;;;;;;;;;4231120;28;20239;-80
2023/01/30 00:09:02;;;;;;;43.83;34.78;;;;;;;;;;4214320;28;20367;-80
2023/01/30 00:11:22;;;;;;;41.25;36.95;;;;;;;;;;4208322;28;20409;-80
2023/01/30 00:13:43;;;;;;;45.92;41.63;;;;;;;;;;4227906;28;20085;-80
2023/01/30 00:16:03;;;;;;;52.20;47.60;;;;;;;;;;4222790;28;20415;-80
2023/01/30 00:18:24;;;;;;;52.65;48.45;;;;;;;;;;4223664;28;20043;-80
2023/01/30 00:20:44;;;;;;;55.13;50.40;;;;;;;;;;4225893;28;20149;-80
2023/01/30 00:23:04;;;;;;;58.22;53.20;;;;;;;;;;4210338;28;20051;-80
2023/01/30 00:25:25;;;;;;;53.30;48.70;;;;;;;;;;4225368;28;20250;-80
2023/01/30 00:27:46;;;;;;;54.17;49.70;;;;;;;;;;4223595;28;20051;-80
2023/01/30 00:30:06;;;;;;;52.25;47.85;;;;;;;;;;4222476;28;20046;-80
2023/01/30 00:32:26;;;;;;;54.72;50.53;;;;;;;;;;4224989;28;20048;-80
2023/01/30 00:34:46;;;;;;;48.97;45.33;;;;;;;;;;4221150;28;20055;-80
2023/01/30 00:37:07;;;;;;;51.63;47.60;;;;;;;;;;4222272;28;20039;-80
2023/01/30 00:39:28;;;;;;;51.88;47.72;;;;;;;;;;4221283;28;20042;-80
2023/01/30 00:47:05;;;;;;;54.17;43.05;;;;;;;;;;4224467;28;20378;-80
2023/01/30 00:49:25;;;;;;;48.55;43.47;;;;;;;;;;4225098;28;20047;-80
2023/01/30 00:51:46;;;;;;;39.00;34.50;;;;;;;;;;4221640;28;20050;-80
2023/01/30 00:54:06;;;;;;;32.05;29.05;;;;;;;;;;4224410;28;20039;-80
2023/01/30 00:56:26;;;;;;;32.97;29.92;;;;;;;;;;4221894;28;20055;-80
2023/01/30 00:58:47;;;;;;;29.95;27.20;;;;;;;;;;4210047;28;20047;-80
2023/01/30 01:01:07;;;;;;;30.52;27.45;;;;;;;;;;4225824;28;20433;-80
2023/01/30 01:03:28;;;;;;;31.23;28.10;;;;;;;;;;4222376;28;20043;-80
2023/01/30 01:05:48;;;;;;;28.65;25.98;;;;;;;;;;4229648;28;20047;-80
2023/01/30 01:08:09;;;;;;;32.30;29.50;;;;;;;;;;4211620;28;20052;-80
2023/01/30 01:10:29;;;;;;;32.78;29.10;;;;;;;;;;4227797;28;20076;-80
2023/01/30 01:12:53;;;;;;;32.08;29.20;;;;;;;;;;4225922;28;20046;-80
2023/01/30 01:15:14;;;;;;;32.70;29.55;;;;;;;;;;4209082;28;20047;-80
2023/01/30 01:17:34;;;;;;;31.20;28.10;;;;;;;;;;4223330;28;20059;-80
2023/01/30 01:19:54;;;;;;;31.65;28.48;;;;;;;;;;4224421;28;20047;-80
2023/01/30 01:22:14;;;;;;;28.77;26.42;;;;;;;;;;4222644;28;20322;-80
2023/01/30 01:24:34;;;;;;;32.08;29.02;;;;;;;;;;4224906;28;20051;-80
2023/01/30 01:26:55;;;;;;;28.38;26.02;;;;;;;;;;4220318;28;20393;-80
2023/01/30 01:29:16;;;;;;;29.15;26.75;;;;;;;;;;4221741;28;20047;-80
2023/01/30 01:31:36;;;;;;;30.15;27.15;;;;;;;;;;4221659;28;20050;-80
2023/01/30 01:33:56;;;;;;;39.88;35.72;;;;;;;;;;4223349;28;20131;-80
2023/01/30 01:36:16;;;;;;;37.70;33.75;;;;;;;;;;4208440;28;20401;-80
2023/01/30 01:38:57;;;;;;;36.92;33.15;;;;;;;;;;4221811;28;20093;-80
2023/01/30 01:41:17;;;;;;;29.80;27.45;;;;;;;;;;4210605;28;20063;-80
2023/01/30 01:43:58;;;;;;;28.02;25.52;;;;;;;;;;4219517;28;20059;-80
2023/01/30 01:46:21;;;;;;;31.30;26.42;;;;;;;;;;4207532;28;20048;-80
2023/01/30 01:48:42;;;;;;;;;;;;;;;;;;4221260;28;20255;-80
2023/01/30 01:51:03;;;;;;;26.67;24.35;;;;;;;;;;4224376;28;19923;-80
2023/01/30 01:53:26;;;;;;;27.63;25.10;;;;;;;;;;4221685;28;20039;-80
2023/01/30 01:55:47;;;;;;;25.40;23.65;;;;;;;;;;4223422;28;20051;-80
2023/01/30 01:58:12;;;;;;;25.17;23.27;;;;;;;;;;4225489;28;20047;-80
2023/01/30 02:00:33;;;;;;;26.02;23.85;;;;;;;;;;4222643;28;20385;-80
2023/01/30 02:02:57;;;;;;;23.23;21.58;;;;;;;;;;4222262;28;20056;-80
2023/01/30 02:05:18;;;;;;;25.33;23.23;;;;;;;;;;4224087;28;20055;-80
2023/01/30 02:07:42;;;;;;;22.90;21.02;;;;;;;;;;4220099;28;20085;-80
2023/01/30 02:10:02;;;;;;;;;;;;;;;;;;4227121;28;20050;-80
2023/01/30 02:12:22;;;;;;;20.30;19.00;;;;;;;;;;4224908;28;19923;-80
2023/01/30 02:14:43;;;;;;;26.08;24.15;;;;;;;;;;4207825;28;20083;-80
2023/01/30 02:17:03;;;;;;;31.77;28.48;;;;;;;;;;4225110;28;20093;-80
2023/01/30 02:19:30;;;;;;;30.55;27.83;;;;;;;;;;4224806;28;20039;-80
2023/01/30 02:22:08;;;;;;;29.73;27.33;;;;;;;;;;4210249;28;20293;-80
2023/01/30 02:24:31;;;;;;;33.30;30.00;;;;;;;;;;4207859;28;20071;-80
2023/01/30 02:26:52;;;;;;;31.35;28.30;;;;;;;;;;4206692;28;20104;-80
2023/01/30 02:29:35;;;;;;;28.30;25.80;;;;;;;;;;4208491;28;20060;-80
2023/01/30 02:32:15;;;;;;;28.42;25.95;;;;;;;;;;4219834;28;20043;-80
2023/01/30 02:34:42;;;;;;;28.73;26.05;;;;;;;;;;4224806;28;20047;-80
2023/01/30 02:37:17;;;;;;;29.95;27.10;;;;;;;;;;4223578;28;20051;-80
2023/01/30 02:39:53;;;;;;;30.80;27.85;;;;;;;;;;4221977;28;20044;-80
2023/01/30 02:42:26;;;;;;;27.40;25.23;;;;;;;;;;4221701;28;20050;-80
2023/01/30 02:45:03;;;;;;;32.83;29.77;;;;;;;;;;4224207;28;20044;-80
2023/01/30 02:47:27;;;;;;;32.35;28.90;;;;;;;;;;4224218;28;20042;-80
2023/01/30 02:49:54;;;;;;;30.00;27.35;;;;;;;;;;4226608;28;20039;-80
2023/01/30 02:52:15;;;;;;;29.73;26.75;;;;;;;;;;4228248;28;20042;-80
2023/01/30 02:54:38;;;;;;;29.48;27.05;;;;;;;;;;4214545;28;20373;-80
2023/01/30 02:56:58;;;;;;;28.35;26.00;;;;;;;;;;4227965;28;20051;-80
2023/01/30 02:59:23;;;;;;;28.25;25.63;;;;;;;;;;4224911;28;20408;-80
2023/01/30 03:01:58;;;;;;;28.73;26.42;;;;;;;;;;4225752;28;20081;-80
2023/01/30 03:04:26;;;;;;;25.30;23.35;;;;;;;;;;4215229;28;20043;-80
2023/01/30 03:07:07;;;;;;;26.52;24.13;;;;;;;;;;4228585;28;20403;-80
2023/01/30 03:09:36;;;;;;;27.67;25.17;;;;;;;;;;4211420;28;20381;-80
2023/01/30 03:12:02;;;;;;;27.92;25.33;;;;;;;;;;4212237;28;20047;-80
2023/01/30 03:14:26;;;;;;;28.40;25.67;;;;;;;;;;4226062;28;20051;-80
2023/01/30 03:16:47;;;;;;;28.92;26.58;;;;;;;;;;4224399;28;20038;-80
2023/01/30 03:19:12;;;;;;;28.85;26.30;;;;;;;;;;4226368;28;20108;-80
2023/01/30 03:21:32;;;;;;;31.75;28.80;;;;;;;;;;4225985;28;20039;-80
2023/01/30 03:23:53;;;;;;;27.42;24.80;;;;;;;;;;4224797;28;20084;-80
2023/01/30 03:26:17;;;;;;;30.92;28.08;;;;;;;;;;4208156;28;20130;-80
2023/01/30 03:28:37;;;;;;;27.55;24.77;;;;;;;;;;4224904;28;20039;-80
2023/01/30 03:30:58;;;;;;;29.02;26.23;;;;;;;;;;4224289;28;20051;-80
2023/01/30 03:33:19;;;;;;;27.65;25.08;;;;;;;;;;4224537;28;20046;-80
2023/01/30 03:35:40;;;;;;;27.75;25.13;;;;;;;;;;4209997;28;20051;-80
2023/01/30 03:38:00;;;;;;;34.17;31.05;;;;;;;;;;4220368;28;20212;-80
2023/01/30 03:40:20;;;;;;;35.17;31.58;;;;;;;;;;4221228;28;20051;-80
2023/01/30 03:42:41;;;;;;;39.17;32.97;;;;;;;;;;4222774;28;20097;-80
2023/01/30 03:45:02;;;;;;;40.42;33.05;;;;;;;;;;4222751;28;20287;-80
2023/01/30 03:47:22;;;;;;;41.67;37.35;;;;;;;;;;4225052;28;20134;-80
2023/01/30 03:49:42;;;;;;;37.92;33.88;;;;;;;;;;4226739;28;20046;-80
2023/01/30 03:52:02;;;;;;;35.88;32.35;;;;;;;;;;4223458;28;20089;-80
2023/01/30 03:54:22;;;;;;;33.72;30.30;;;;;;;;;;4216613;28;20086;-80
2023/01/30 03:56:43;;;;;;;36.17;32.45;;;;;;;;;;4210586;28;20235;-80
2023/01/30 03:59:03;;;;;;;38.30;34.25;;;;;;;;;;4223819;28;20100;-80
2023/01/30 04:01:24;;;;;;;37.50;33.58;;;;;;;;;;4209000;28;20082;-80
2023/01/30 04:03:44;;;;;;;31.30;28.20;;;;;;;;;;4226627;28;20112;-80
2023/01/30 04:06:05;;;;;;;31.15;28.33;;;;;;;;;;4228064;28;20047;-80
2023/01/30 04:08:26;;;;;;;31.95;28.95;;;;;;;;;;4229211;28;20085;-80
2023/01/30 04:10:46;;;;;;;30.23;27.58;;;;;;;;;;4224062;28;20111;-80
2023/01/30 04:13:06;;;;;;;32.33;29.52;;;;;;;;;;4224338;28;20043;-80
2023/01/30 04:15:26;;;;;;;33.40;30.13;;;;;;;;;;4223808;28;20396;-80
2023/01/30 04:17:47;;;;;;;31.77;28.73;;;;;;;;;;4216299;28;20293;-80
2023/01/30 04:20:07;;;;;;;30.95;27.95;;;;;;;;;;4213832;28;20091;-80
2023/01/30 04:22:27;;;;;;;28.60;25.73;;;;;;;;;;4207171;28;20094;-80
2023/01/30 04:24:47;;;;;;;27.10;24.70;;;;;;;;;;4221617;28;20052;-79
2023/01/30 04:27:08;;;;;;;29.95;26.92;;;;;;;;;;4223499;28;20397;-80
2023/01/30 04:29:28;;;;;;;28.17;25.45;;;;;;;;;;4222036;28;20124;-80
2023/01/30 04:31:48;;;;;;;29.30;26.45;;;;;;;;;;4208649;28;20055;-80
2023/01/30 04:34:09;;;;;;;32.60;29.38;;;;;;;;;;4224863;28;20104;-80
2023/01/30 04:36:29;;;;;;;31.30;27.98;;;;;;;;;;4223623;28;20299;-80
2023/01/30 04:38:49;;;;;;;31.58;28.20;;;;;;;;;;4221127;28;20294;-79
2023/01/30 04:41:09;;;;;;;29.88;26.75;;;;;;;;;;4208458;28;20382;-80
2023/01/30 04:43:30;;;;;;;32.65;29.33;;;;;;;;;;4209095;28;20130;-80
2023/01/30 04:45:51;;;;;;;33.15;29.33;;;;;;;;;;4207502;28;20059;-80
2023/01/30 04:48:12;;;;;;;30.88;28.00;;;;;;;;;;4226426;28;20154;-80
2023/01/30 04:50:32;;;;;;;29.83;27.02;;;;;;;;;;4223294;28;20039;-80
2023/01/30 04:52:52;;;;;;;31.13;28.10;;;;;;;;;;4225981;28;20042;-80
2023/01/30 04:55:13;;;;;;;31.50;28.65;;;;;;;;;;4209949;28;20123;-80
2023/01/30 04:57:33;;;;;;;31.83;28.77;;;;;;;;;;4224010;28;20318;-80
2023/01/30 04:59:53;;;;;;;31.85;28.80;;;;;;;;;;4209569;28;20124;-79
2023/01/30 05:02:13;;;;;;;30.70;27.67;;;;;;;;;;4224940;28;20051;-80
2023/01/30 05:04:33;;;;;;;28.73;26.10;;;;;;;;;;4226206;28;20092;-79
2023/01/30 05:06:53;;;;;;;32.10;29.00;;;;;;;;;;4209993;28;20123;-80
2023/01/30 05:09:13;;;;;;;29.33;26.60;;;;;;;;;;4222975;28;20050;-80
2023/01/30 05:11:34;;;;;;;29.83;27.08;;;;;;;;;;4225804;28;20051;-80
2023/01/30 05:13:54;;;;;;;30.25;27.50;;;;;;;;;;4223529;28;20063;-80
2023/01/30 05:16:15;;;;;;;29.27;26.77;;;;;;;;;;4223510;28;20051;-80
2023/01/30 05:18:35;;;;;;;30.27;27.35;;;;;;;;;;4224640;28;20450;-80
2023/01/30 05:21:06;;;;;;;28.67;26.15;;;;;;;;;;4224405;28;20122;-80
2023/01/30 05:23:27;;;;;;;30.88;27.55;;;;;;;;;;4220765;28;20075;-80
2023/01/30 05:25:47;;;;;;;29.13;26.60;;;;;;;;;;4221222;28;20047;-79
2023/01/30 05:28:07;;;;;;;31.05;27.98;;;;;;;;;;4222132;28;20100;-80
2023/01/30 05:30:27;;;;;;;29.83;27.00;;;;;;;;;;4223001;28;20067;-80
2023/01/30 05:32:48;;;;;;;27.90;25.90;;;;;;;;;;4223632;28;20110;-79
2023/01/30 05:35:08;;;;;;;26.65;24.35;;;;;;;;;;4220127;28;20386;-80
2023/01/30 05:37:28;;;;;;;28.40;25.75;;;;;;;;;;4223602;28;20086;-79
2023/01/30 05:39:48;;;;;;;25.55;23.73;;;;;;;;;;4223577;28;20240;-79
2023/01/30 05:42:09;;;;;;;25.15;23.27;;;;;;;;;;4220078;28;20201;-79
2023/01/30 05:44:29;;;;;;;25.10;23.25;;;;;;;;;;4223761;28;20035;-80
2023/01/30 05:46:49;;;;;;;23.92;22.15;;;;;;;;;;4211767;28;20047;-80
2023/01/30 05:49:09;;;;;;;24.80;23.00;;;;;;;;;;4208589;28;20367;-79
2023/01/30 05:51:29;;;;;;;22.88;21.23;;;;;;;;;;4225458;28;20058;-80
2023/01/30 05:53:51;;;;;;;23.08;21.58;;;;;;;;;;4224312;28;20050;-79
2023/01/30 05:56:11;;;;;;;24.08;22.38;;;;;;;;;;4223223;28;20053;-79
2023/01/30 05:58:32;;;;;;;24.20;22.55;;;;;;;;;;4221376;28;20050;-80
2023/01/30 06:00:52;;;;;;;22.73;21.40;;;;;;;;;;4223376;28;20047;-80
2023/01/30 06:03:12;;;;;;;24.42;22.85;;;;;;;;;;4224608;28;20328;-80
2023/01/30 06:05:32;;;;;;;23.58;21.98;;;;;;;;;;4227132;28;20046;-79
2023/01/30 06:07:53;;;;;;;26.30;24.50;;;;;;;;;;4223131;28;20039;-80
2023/01/30 06:10:13;;;;;;;43.25;40.20;;;;;;;;;;4224534;28;20051;-79
2023/01/30 06:12:33;;;;;;;48.00;44.72;;;;;;;;;;4223210;28;20043;-79
2023/01/30 06:14:53;;;;;;;30.50;28.50;;;;;;;;;;4222809;28;20046;-80
2023/01/30 06:17:14;;;;;;;54.45;48.92;;;;;;;;;;4224911;28;20067;-80
2023/01/30 06:19:34;;;;;;;66.97;61.13;;;;;;;;;;4207334;28;20119;-80
2023/01/30 06:21:54;;;;;;;71.85;64.18;;;;;;;;;;4220936;28;20295;-79
2023/01/30 06:24:14;;;;;;;103.00;82.18;;;;;;;;;;4221313;28;20081;-79
2023/01/30 06:26:34;;;;;;;157.18;101.63;;;;;;;;;;4203874;28;20067;-87
2023/01/30 06:28:54;;;;;;;78.35;59.67;;;;;;;;;;4219385;28;20314;-87
2023/01/30 06:31:17;;;;;;;75.88;55.53;;;;;;;;;;4208476;28;20054;-87
2023/01/30 06:33:37;;;;;;;65.38;48.85;;;;;;;;;;4220509;28;20269;-87
2023/01/30 06:35:57;;;;;;;66.10;45.53;;;;;;;;;;4221005;28;20277;-87
2023/01/30 06:38:19;;;;;;;47.20;40.28;;;;;;;;;;4221802;28;20039;-87
2023/01/30 06:40:46;;;;;;;37.05;33.42;;;;;;;;;;4217762;28;20304;-87
2023/01/30 06:43:07;;;;;;;31.58;28.73;;;;;;;;;;4224890;28;20082;-86
2023/01/30 06:45:27;;;;;;;30.13;26.98;;;;;;;;;;4210577;28;20079;-86
2023/01/30 06:47:51;;;;;;;30.70;27.77;;;;;;;;;;4223206;28;20050;-87
2023/01/30 06:50:13;;;;;;;35.95;32.38;;;;;;;;;;4210882;28;20138;-86
2023/01/30 06:52:33;;;;;;;32.40;29.60;;;;;;;;;;4224001;28;20085;-87
2023/01/30 06:54:53;;;;;;;33.03;30.15;;;;;;;;;;4222459;28;20099;-86
2023/01/30 06:57:14;;;;;;;29.40;27.02;;;;;;;;;;4223040;28;20050;-87
2023/01/30 06:59:34;;;;;;;26.48;24.50;;;;;;;;;;4222401;28;20062;-88
2023/01/30 07:01:54;;;;;;;27.88;25.73;;;;;;;;;;4224762;28;20044;-88
2023/01/30 07:04:14;;;;;;;25.45;23.55;;;;;;;;;;4212334;28;20043;-89
2023/01/30 07:06:34;;;;;;;28.80;26.35;;;;;;;;;;4220286;28;20445;-88
2023/01/30 07:08:57;;;;;;;26.05;23.88;;;;;;;;;;4222083;28;20557;-89
2023/01/30 07:11:18;;;;;;;29.40;26.25;;;;;;;;;;4206755;28;20251;-88
2023/01/30 07:13:38;;;;;;;27.40;25.17;;;;;;;;;;4220569;28;20051;-88
2023/01/30 07:15:59;;;;;;;35.53;32.17;;;;;;;;;;4210686;28;20087;-88
2023/01/30 07:18:19;;;;;;;28.35;26.05;;;;;;;;;;4221867;28;20071;-89
2023/01/30 07:20:40;;;;;;;26.92;24.27;;;;;;;;;;4220409;28;20043;-88
2023/01/30 07:23:01;;;;;;;29.88;27.27;;;;;;;;;;4223729;28;20393;-89
2023/01/30 07:25:23;;;;;;;32.25;29.05;;;;;;;;;;4217116;28;20050;-88
2023/01/30 07:27:43;;;;;;;35.03;31.95;;;;;;;;;;4220433;28;20240;-89
2023/01/30 07:30:03;;;;;;;34.03;30.55;;;;;;;;;;4224898;28;20365;-89
2023/01/30 07:32:24;;;;;;;34.95;31.15;;;;;;;;;;4222331;28;20147;-88
2023/01/30 07:34:44;;;;;;;35.85;32.35;;;;;;;;;;4223183;28;20051;-89
2023/01/30 07:37:04;;;;;;;39.92;35.85;;;;;;;;;;4224263;28;20059;-88
2023/01/30 07:39:25;;;;;;;64.85;47.15;;;;;;;;;;4211866;28;20247;-89
2023/01/30 07:41:45;;;;;;;50.78;42.92;;;;;;;;;;4208762;28;20071;-88
2023/01/30 07:44:06;;;;;;;36.80;32.78;;;;;;;;;;4224270;28;20047;-88
2023/01/30 07:46:33;;;;;;;34.20;30.92;;;;;;;;;;4225272;28;20298;-89
2023/01/30 07:48:53;;;;;;;27.95;25.23;;;;;;;;;;4226506;28;20051;-87
2023/01/30 07:51:14;;;;;;;23.58;21.40;;;;;;;;;;4225655;28;20312;-88
2023/01/30 07:53:34;;;;;;;41.75;33.63;;;;;;;;;;4227226;28;20042;-88
2023/01/30 07:55:54;;;;;;;36.38;32.42;;;;;;;;;;4209361;28;20091;-88
2023/01/30 07:58:15;;;;;;;38.80;28.60;;;;;;;;;;4224688;28;20070;-89
2023/01/30 08:00:35;;;;;;;29.60;26.67;;;;;;;;;;4229204;28;20375;-89
2023/01/30 08:02:56;;;;;;;38.20;30.08;;;;;;;;;;4227455;28;20062;-89
2023/01/30 08:05:16;;;;;;;28.02;25.67;;;;;;;;;;4208243;28;20155;-88
2023/01/30 08:07:36;;;;;;;24.50;22.70;;;;;;;;;;4226636;28;20243;-89
2023/01/30 08:09:56;;;;;;;28.10;25.13;;;;;;;;;;4226617;28;20089;-89
2023/01/30 08:12:17;;;;;;;44.28;34.20;;;;;;;;;;4223047;28;20390;-89
2023/01/30 08:14:37;;;;;;;39.95;32.63;;;;;;;;;;4228513;28;20065;-88
2023/01/30 08:16:57;;;;;;;71.13;45.88;;;;;;;;;;4208002;28;20386;-89
2023/01/30 08:19:18;;;;;;;70.47;48.55;;;;;;;;;;4225109;28;20042;-88
2023/01/30 08:21:38;;;;;;;66.78;48.58;;;;;;;;;;4223266;28;20043;-89
2023/01/30 08:23:58;;;;;;;75.78;53.05;;;;;;;;;;4209149;28;20382;-88
2023/01/30 08:26:20;;;;;;;74.13;52.45;;;;;;;;;;4217736;28;20453;-88
2023/01/30 08:28:41;;;;;;;68.47;48.70;;;;;;;;;;4226131;28;20046;-89
2023/01/30 08:31:01;;;;;;;59.47;45.10;;;;;;;;;;4220533;28;20075;-90
2023/01/30 08:33:21;;;;;;;52.35;41.08;;;;;;;;;;4223519;28;20041;-89
2023/01/30 08:35:42;;;;;;;106.57;67.60;;;;;;;;;;4223752;28;20075;-89
2023/01/30 08:38:06;;;;;;;48.40;43.22;;;;;;;;;;4219166;28;20062;-89
2023/01/30 08:40:26;;;;;;;66.60;53.17;;;;;;;;;;4226346;28;20042;-89
2023/01/30 08:42:46;;;;;;;48.88;42.42;;;;;;;;;;4224900;28;20079;-89
2023/01/30 08:45:07;;;;;;;44.25;39.35;;;;;;;;;;4209478;28;20063;-89
2023/01/30 08:47:27;;;;;;;41.92;34.95;;;;;;;;;;4223789;28;20374;-89
2023/01/30 08:49:50;;;;;;;59.33;45.72;;;;;;;;;;4207573;28;20106;-89
2023/01/30 08:52:10;;;;;;;65.22;45.50;;;;;;;;;;4225082;28;20089;-88
2023/01/30 08:54:30;;;;;;;54.63;44.67;;;;;;;;;;4208033;28;20115;-90
2023/01/30 08:56:53;;;;;;;54.78;42.53;;;;;;;;;;4223782;28;20042;-91
2023/01/30 08:59:13;;;;;;;47.15;38.47;;;;;;;;;;4227859;28;20045;-91
2023/01/30 09:01:33;;;;;;;33.97;29.85;;;;;;;;;;4228263;28;20047;-91
2023/01/30 09:03:54;;;;;;;33.03;30.10;;;;;;;;;;4222617;28;20086;-90
2023/01/30 09:06:14;;;;;;;34.08;30.60;;;;;;;;;;4224860;28;20062;-90
2023/01/30 09:08:34;;;;;;;34.15;30.63;;;;;;;;;;4224948;28;20149;-91
2023/01/30 09:10:58;;;;;;;32.80;29.38;;;;;;;;;;4208360;28;20066;-91
2023/01/30 09:13:18;;;;;;;36.50;32.53;;;;;;;;;;4226019;28;20092;-91
2023/01/30 09:15:41;;;;;;;31.60;28.17;;;;;;;;;;4209789;28;20112;-91
2023/01/30 09:18:01;;;;;;;;;;;;;;;;;;4221612;28;20303;-91
2023/01/30 09:20:22;;;;;;;36.30;32.45;;;;;;;;;;4223104;28;19923;-90
2023/01/30 09:22:42;;;;;;;33.58;30.17;;;;;;;;;;4222637;28;20055;-90
2023/01/30 09:25:02;;;;;;;39.42;33.67;;;;;;;;;;4216847;28;20239;-90
2023/01/30 09:27:22;;;;;;;39.53;31.35;;;;;;;;;;4208558;28;20082;-91
2023/01/30 09:29:42;;;;;;;44.88;35.88;;;;;;;;;;4221369;28;20040;-90
2023/01/30 09:32:05;;;;;;;60.40;43.50;;;;;;;;;;4224704;28;20047;-90
2023/01/30 09:34:27;;;;;;;45.15;37.30;;;;;;;;;;4220279;28;20454;-90
2023/01/30 09:36:47;;;;;;;44.53;35.47;;;;;;;;;;4222413;28;20070;-89
2023/01/30 09:39:08;;;;;;;38.47;32.83;;;;;;;;;;4208552;28;20151;-90
2023/01/30 09:41:46;;;;;;;39.30;33.33;;;;;;;;;;4223595;28;20419;-91
2023/01/30 09:44:10;;;;;;;39.88;35.60;;;;;;;;;;4223694;28;20407;-90
2023/01/30 09:46:47;;;;;;;31.40;28.17;;;;;;;;;;4226534;28;20047;-91
2023/01/30 09:49:26;;;;;;;28.55;25.70;;;;;;;;;;4223030;28;20058;-91
2023/01/30 09:52:02;;;;;;;24.65;22.10;;;;;;;;;;4210798;28;20050;-90
2023/01/30 09:54:25;;;;;;;22.80;20.77;;;;;;;;;;4209605;28;20042;-89
2023/01/30 09:56:46;;;;;;;20.08;18.55;;;;;;;;;;4226167;28;20047;-89
2023/01/30 09:59:06;;;;;;;18.25;16.77;;;;;;;;;;4229438;28;20043;-89
2023/01/30 10:01:32;;;;;;;16.52;15.63;;;;;;;;;;4224012;28;20126;-88
2023/01/30 10:04:03;;;;;;;18.50;17.08;;;;;;;;;;4221948;28;20134;-89
2023/01/30 10:06:23;;;;;;;15.88;14.98;;;;;;;;;;4224457;28;20228;-89
2023/01/30 10:08:43;;;;;;;14.88;14.05;;;;;;;;;;4208319;28;20385;-89
2023/01/30 10:11:10;;;;;;;14.63;13.63;;;;;;;;;;4223471;28;20055;-89
2023/01/30 10:13:36;;;;;;;16.55;15.48;;;;;;;;;;4229955;28;20047;-91
2023/01/30 10:16:17;;;;;;;18.88;17.02;;;;;;;;;;4206963;28;20071;-90
2023/01/30 10:18:43;;;;;;;15.30;14.40;;;;;;;;;;4223028;28;20058;-90
2023/01/30 10:21:09;;;;;;;12.50;11.85;;;;;;;;;;4207958;28;20047;-89
2023/01/30 10:23:39;;;;;;;11.80;11.30;;;;;;;;;;4216262;28;20047;-90
2023/01/30 10:26:05;;;;;;;29.67;21.50;;;;;;;;;;4220602;28;20090;-91
2023/01/30 10:28:30;;;;;;;14.32;13.57;;;;;;;;;;4220248;28;20119;-90
2023/01/30 10:30:52;;;;;;;17.13;15.80;;;;;;;;;;4209356;28;20104;-90
2023/01/30 10:33:20;;;;;;;14.07;13.40;;;;;;;;;;4220837;28;20068;-89
2023/01/30 10:35:42;;;;;;;16.30;14.82;;;;;;;;;;4218183;28;20098;-90
2023/01/30 10:38:06;;;;;;;16.17;15.23;;;;;;;;;;4221459;28;20137;-91
2023/01/30 10:40:29;;;;;;;11.90;11.40;;;;;;;;;;4222074;28;20239;-90
2023/01/30 10:42:54;;;;;;;13.10;12.50;;;;;;;;;;4223787;28;20055;-91
2023/01/30 10:45:19;;;;;;;12.82;12.02;;;;;;;;;;4226813;28;20063;-92
2023/01/30 10:47:48;;;;;;;12.10;11.48;;;;;;;;;;4222993;28;20370;-92
2023/01/30 10:50:30;;;;;;;16.58;14.88;;;;;;;;;;4209540;28;20074;-93
2023/01/30 10:52:55;;;;;;;14.75;13.32;;;;;;;;;;4223141;28;20373;-91
2023/01/30 10:55:26;;;;;;;16.02;14.38;;;;;;;;;;4209659;28;20059;-93
2023/01/30 10:58:00;;;;;;;16.17;14.82;;;;;;;;;;4228620;28;20084;-93
2023/01/30 11:00:43;;;;;;;14.38;13.18;;;;;;;;;;4225724;28;20108;-92
2023/01/30 11:03:13;;;;;;;24.67;17.98;;;;;;;;;;4184036;28;20082;-92
2023/01/30 11:05:39;;;;;;;19.15;17.27;;;;;;;;;;4227456;28;20399;-92
2023/01/30 11:08:00;;;;;;;16.80;15.25;;;;;;;;;;4223687;28;20046;-93
2023/01/30 11:10:22;;;;;;;29.73;23.77;;;;;;;;;;4209746;28;20103;-92
2023/01/30 11:12:42;;;;;;;31.38;25.80;;;;;;;;;;4224667;28;20082;-92
2023/01/30 11:15:03;;;;;;;16.77;15.30;;;;;;;;;;4224601;28;20078;-91
2023/01/30 11:17:37;;;;;;;13.68;12.75;;;;;;;;;;4211170;28;20086;-91
2023/01/30 11:20:01;;;;;;;19.83;17.90;;;;;;;;;;4215327;28;20104;-92
2023/01/30 11:22:24;;;;;;;18.95;17.45;;;;;;;;;;4225799;28;20055;-91
2023/01/30 11:24:45;;;;;;;;;;;;;;;;;;4224136;28;20047;-92
2023/01/30 11:27:11;;;;;;;9.82;8.85;;;;;;;;;;4224850;28;19954;-93
2023/01/30 11:29:34;;;;;;;9.38;8.82;;;;;;;;;;4224436;28;20043;-93
2023/01/30 11:31:54;;;;;;;9.40;8.85;;;;;;;;;;4222630;28;20140;-92
2023/01/30 11:34:16;;;;;;;10.68;10.07;;;;;;;;;;4221034;28;20094;-92
2023/01/30 11:36:37;;;;;;;10.80;10.30;;;;;;;;;;4224048;28;20047;-92
2023/01/30 11:39:02;;;;;;;6.68;6.50;;;;;;;;;;4225148;28;20047;-91
2023/01/30 11:41:23;;;;;;;10.32;9.70;;;;;;;;;;4211540;28;20151;-92
2023/01/30 11:43:43;;;;;;;15.75;14.00;;;;;;;;;;4227990;28;20082;-92
2023/01/30 11:46:05;;;;;;;17.10;15.30;;;;;;;;;;4224607;28;20050;-90
2023/01/30 11:48:27;;;;;;;12.07;11.13;;;;;;;;;;4212000;28;20115;-91
2023/01/30 11:51:09;;;;;;;14.43;13.30;;;;;;;;;;4213653;28;20277;-92
2023/01/30 11:53:30;;;;;;;14.30;13.07;;;;;;;;;;4226570;28;20106;-92
2023/01/30 11:55:51;;;;;;;19.70;16.10;;;;;;;;;;4229090;28;20078;-92
2023/01/30 11:58:24;;;;;;;14.25;13.27;;;;;;;;;;4215302;28;20035;-93
2023/01/30 12:00:48;;;;;;;28.05;17.95;;;;;;;;;;4224593;28;20117;-93
2023/01/30 12:03:13;;;;;;;14.70;13.30;;;;;;;;;;4230195;28;20071;-93
2023/01/30 12:05:38;;;;;;;15.75;14.63;;;;;;;;;;4221806;28;20073;-94
2023/01/30 12:08:11;;;;;;;14.50;13.68;;;;;;;;;;4223248;28;20251;-94
2023/01/30 12:10:31;;;;;;;14.75;13.70;;;;;;;;;;4230756;28;20051;-94
2023/01/30 12:12:56;;;;;;;14.57;13.55;;;;;;;;;;4215521;28;20070;-94
2023/01/30 12:15:24;;;;;;;10.98;10.32;;;;;;;;;;4229039;28;20373;-94
2023/01/30 12:17:59;;;;;;;12.90;11.70;;;;;;;;;;4227314;28;20063;-93
2023/01/30 12:20:25;;;;;;;12.95;11.77;;;;;;;;;;4218201;28;20042;-94
2023/01/30 12:23:00;;;;;;;12.35;11.48;;;;;;;;;;4221391;28;20074;-94
2023/01/30 12:25:22;;;;;;;12.40;11.70;;;;;;;;;;4223593;28;20043;-92
2023/01/30 12:28:01;;;;;;;8.50;8.02;;;;;;;;;;4223531;28;20044;-95
2023/01/30 12:30:26;;;;;;;10.05;9.48;;;;;;;;;;4209578;28;20048;-93
2023/01/30 12:32:46;;;;;;;7.70;7.35;;;;;;;;;;4210158;28;20286;-94
2023/01/30 12:35:29;;;;;;;8.90;8.30;;;;;;;;;;4224972;28;20419;-94
2023/01/30 12:38:07;;;;;;;7.90;7.43;;;;;;;;;;4208323;28;20036;-95
2023/01/30 12:40:33;;;;;;;5.85;5.65;;;;;;;;;;4212838;28;20076;-94
2023/01/30 12:42:54;;;;;;;15.65;11.40;;;;;;;;;;4228171;28;20043;-90
2023/01/30 12:45:17;;;;;;;7.38;7.07;;;;;;;;;;4223747;28;20075;-89
2023/01/30 12:47:37;;;;;;;7.63;7.30;;;;;;;;;;4229297;28;20071;-90
2023/01/30 12:50:10;;;;;;;10.93;10.20;;;;;;;;;;4208052;28;20258;-89
2023/01/30 12:52:36;;;;;;;6.45;6.10;;;;;;;;;;4222960;28;20097;-89
2023/01/30 12:55:15;;;;;;;5.88;5.70;;;;;;;;;;4228590;28;20058;-89
2023/01/30 12:57:46;;;;;;;6.68;6.38;;;;;;;;;;4210631;28;20362;-90
2023/01/30 13:00:12;;;;;;;7.93;7.72;;;;;;;;;;4224397;28;20043;-89
2023/01/30 13:02:39;;;;;;;7.00;6.70;;;;;;;;;;4225034;28;20050;-89
2023/01/30 13:05:11;;;;;;;7.80;7.50;;;;;;;;;;4226365;28;20261;-89
2023/01/30 13:07:34;;;;;;;8.63;8.13;;;;;;;;;;4222269;28;20105;-89
2023/01/30 13:09:55;;;;;;;8.18;7.82;;;;;;;;;;4210207;28;20079;-89
2023/01/30 13:12:24;;;;;;;10.98;10.20;;;;;;;;;;4223356;28;20075;-89
2023/01/30 13:14:52;;;;;;;8.45;7.88;;;;;;;;;;4221767;28;20104;-89
2023/01/30 13:17:31;;;;;;;11.45;11.05;;;;;;;;;;4214266;28;20055;-89
2023/01/30 13:19:51;;;;;;;8.63;8.32;;;;;;;;;;4218497;28;20042;-90
2023/01/30 13:22:21;;;;;;;8.50;8.20;;;;;;;;;;4220103;28;20051;-90
2023/01/30 13:25:14;;;;;;;9.80;9.10;;;;;;;;;;4212200;28;20122;-90
2023/01/30 13:27:37;;;;;;;8.53;8.03;;;;;;;;;;4179494;28;20043;-90
2023/01/30 13:29:58;;;;;;;7.55;7.35;;;;;;;;;;4207623;28;20051;-90
2023/01/30 13:32:28;;;;;;;9.20;8.88;;;;;;;;;;4211502;28;20075;-90
2023/01/30 13:34:48;;;;;;;8.20;7.75;;;;;;;;;;4208051;28;20035;-90
2023/01/30 13:37:09;;;;;;;10.68;9.93;;;;;;;;;;4221479;28;20306;-90
2023/01/30 13:39:38;;;;;;;9.93;9.40;;;;;;;;;;4227453;28;20090;-90
2023/01/30 13:42:05;;;;;;;10.27;9.65;;;;;;;;;;4225524;28;20400;-91
2023/01/30 13:44:30;;;;;;;9.30;8.70;;;;;;;;;;4206886;28;20111;-89
2023/01/30 13:46:52;;;;;;;9.10;8.60;;;;;;;;;;4207396;28;20071;-91
2023/01/30 13:49:25;;;;;;;9.35;8.90;;;;;;;;;;4210186;28;20043;-89
2023/01/30 13:51:45;;;;;;;8.77;8.38;;;;;;;;;;4206683;28;20223;-80
2023/01/30 13:54:16;;;;;;;8.57;8.23;;;;;;;;;;4212388;28;20067;-80
2023/01/30 13:56:44;;;;;;;9.68;9.27;;;;;;;;;;4223212;28;20054;-80
2023/01/30 13:59:05;;;;;;;7.78;7.55;;;;;;;;;;4224392;28;20370;-80
2023/01/30 14:01:48;;;;;;;7.40;7.20;;;;;;;;;;4221294;28;20059;-80
2023/01/30 14:04:44;;;;;;;5.68;5.28;;;;;;;;;;4220329;28;20146;-80